createdAt,value
2023-05-03T00:00:09.277Z,13.40
2023-05-03T00:02:42.032Z,13.00
2023-05-03T00:05:12.530Z,13.63
2023-05-03T00:07:43.194Z,14.37
2023-05-03T00:10:13.119Z,14.23
2023-05-03T00:12:41.623Z,14.30
2023-05-03T00:15:09.829Z,14.40
2023-05-03T00:17:37.936Z,14.57
2023-05-03T00:20:06.380Z,15.50
2023-05-03T00:22:34.061Z,14.50
2023-05-03T00:25:01.488Z,14.20
2023-05-03T00:27:29.131Z,14.57
2023-05-03T00:29:56.627Z,14.27
2023-05-03T00:32:24.104Z,13.97
2023-05-03T00:34:56.144Z,14.80
2023-05-03T00:37:24.565Z,13.73
2023-05-03T00:39:52.870Z,13.97
2023-05-03T00:42:20.161Z,13.47
2023-05-03T00:44:47.513Z,13.57
2023-05-03T00:47:16.604Z,12.10
2023-05-03T00:49:44.874Z,13.27
2023-05-03T00:52:12.331Z,12.60
2023-05-03T00:54:40.274Z,14.30
2023-05-03T00:57:07.753Z,13.47
2023-05-03T00:59:35.285Z,13.40
2023-05-03T01:02:02.741Z,13.73
2023-05-03T01:04:30.768Z,13.67
2023-05-03T01:07:24.198Z,13.83
2023-05-03T01:09:51.802Z,13.43
2023-05-03T01:12:30.601Z,14.80
2023-05-03T01:15:41.994Z,13.93
2023-05-03T01:18:18.717Z,13.47
2023-05-03T01:20:49.295Z,13.77
2023-05-03T01:23:46.330Z,12.90
2023-05-03T01:26:17.148Z,12.27
2023-05-03T01:28:44.449Z,14.17
2023-05-03T01:31:16.273Z,12.87
2023-05-03T01:34:02.428Z,12.80
2023-05-03T01:36:36.813Z,13.97
2023-05-03T01:39:09.817Z,13.80
2023-05-03T01:41:40.547Z,14.43
2023-05-03T01:44:10.726Z,13.70
2023-05-03T01:46:45.431Z,14.47
2023-05-03T01:49:13.700Z,13.80
2023-05-03T01:51:41.035Z,14.70
2023-05-03T01:54:08.417Z,14.33
2023-05-03T01:56:37.427Z,14.50
2023-05-03T01:59:05.107Z,13.70
2023-05-03T02:01:32.566Z,13.93
2023-05-03T02:04:00.014Z,14.50
2023-05-03T02:06:27.361Z,14.27
2023-05-03T02:08:57.344Z,14.77
2023-05-03T02:11:25.701Z,14.30
2023-05-03T02:13:53.340Z,14.90
2023-05-03T02:16:21.183Z,15.60
2023-05-03T02:18:48.671Z,14.63
2023-05-03T02:21:16.271Z,15.53
2023-05-03T02:23:43.920Z,14.80
2023-05-03T02:26:11.216Z,15.00
2023-05-03T02:28:39.309Z,16.00
2023-05-03T02:31:06.883Z,15.27
2023-05-03T02:33:34.204Z,14.67
2023-05-03T02:36:32.130Z,15.50
2023-05-03T02:39:03.845Z,15.67
2023-05-03T02:41:31.637Z,15.17
2023-05-03T02:43:59.590Z,15.53
2023-05-03T02:46:27.934Z,15.83
2023-05-03T02:48:55.346Z,14.87
2023-05-03T02:51:22.803Z,14.70
2023-05-03T02:53:50.277Z,15.27
2023-05-03T02:56:17.589Z,15.83
2023-05-03T02:58:45.125Z,15.43
2023-05-03T03:01:12.603Z,15.77
2023-05-03T03:03:40.923Z,14.77
2023-05-03T03:06:09.570Z,15.07
2023-05-03T03:08:37.351Z,14.60
2023-05-03T03:11:06.491Z,15.30
2023-05-03T03:13:34.317Z,15.43
2023-05-03T03:16:03.065Z,16.40
2023-05-03T03:18:30.472Z,16.50
2023-05-03T03:20:57.941Z,14.77
2023-05-03T03:23:25.182Z,15.70
2023-05-03T03:25:53.120Z,14.67
2023-05-03T03:28:21.425Z,15.37
2023-05-03T03:30:49.503Z,15.80
2023-05-03T03:33:24.635Z,15.30
2023-05-03T03:35:55.447Z,14.83
2023-05-03T03:38:27.480Z,14.97
2023-05-03T03:41:00.871Z,15.67
2023-05-03T03:43:28.441Z,14.47
2023-05-03T03:45:55.736Z,14.70
2023-05-03T03:48:23.790Z,15.30
2023-05-03T03:50:51.410Z,13.97
2023-05-03T03:53:21.238Z,14.67
2023-05-03T03:55:49.176Z,14.47
2023-05-03T03:58:18.261Z,14.10
2023-05-03T04:00:46.102Z,14.00
2023-05-03T04:03:17.283Z,14.07
2023-05-03T04:05:45.946Z,14.77
2023-05-03T04:08:13.427Z,14.03
2023-05-03T04:10:41.363Z,13.80
2023-05-03T04:13:09.303Z,13.30
2023-05-03T04:15:36.733Z,13.37
2023-05-03T04:18:05.819Z,13.20
2023-05-03T04:20:36.930Z,12.03
2023-05-03T04:23:06.060Z,12.90
2023-05-03T04:25:33.370Z,13.50
2023-05-03T04:28:07.063Z,13.43
2023-05-03T04:30:35.910Z,13.30
2023-05-03T04:33:04.591Z,14.40
2023-05-03T04:35:34.682Z,13.53
2023-05-03T04:38:07.248Z,13.70
2023-05-03T04:40:34.803Z,13.53
2023-05-03T04:43:08.515Z,14.47
2023-05-03T04:45:39.754Z,13.90
2023-05-03T04:48:10.212Z,13.90
2023-05-03T04:50:37.729Z,14.23
2023-05-03T04:53:08.263Z,14.63
2023-05-03T04:55:39.616Z,12.67
2023-05-03T04:58:07.278Z,12.00
2023-05-03T05:00:36.126Z,11.63
2023-05-03T05:03:09.862Z,11.23
2023-05-03T05:05:37.383Z,11.47
2023-05-03T05:08:04.774Z,10.73
2023-05-03T05:10:41.339Z,11.20
2023-05-03T05:13:09.490Z,9.93
2023-05-03T05:15:37.452Z,10.23
2023-05-03T05:18:04.971Z,9.60
2023-05-03T05:20:32.836Z,10.00
2023-05-03T05:23:00.162Z,9.80
2023-05-03T05:25:27.773Z,9.10
2023-05-03T05:27:56.035Z,9.00
2023-05-03T05:30:24.730Z,8.73
2023-05-03T05:32:52.325Z,8.03
2023-05-03T05:35:20.214Z,8.93
2023-05-03T05:37:47.875Z,8.93
2023-05-03T05:40:15.977Z,9.33
2023-05-03T05:42:50.174Z,8.73
2023-05-03T05:45:19.625Z,8.90
2023-05-03T05:47:47.262Z,8.90
2023-05-03T05:50:18.259Z,9.37
2023-05-03T05:52:53.269Z,9.47
2023-05-03T05:55:21.582Z,9.17
2023-05-03T05:57:50.864Z,9.47
2023-05-03T06:00:22.347Z,10.10
2023-05-03T06:02:50.267Z,10.27
2023-05-03T06:05:20.552Z,9.60
2023-05-03T06:07:49.006Z,9.70
2023-05-03T06:10:16.466Z,10.33
2023-05-03T06:12:47.865Z,10.20
2023-05-03T06:15:22.442Z,10.60
2023-05-03T06:17:49.913Z,10.87
2023-05-03T06:20:18.213Z,9.70
2023-05-03T06:22:46.415Z,10.20
2023-05-03T06:25:17.843Z,10.80
2023-05-03T06:27:48.641Z,10.27
2023-05-03T06:30:18.319Z,10.63
2023-05-03T06:32:48.683Z,9.93
2023-05-03T06:35:18.355Z,10.80
2023-05-03T06:37:45.743Z,10.13
2023-05-03T06:40:13.204Z,10.10
2023-05-03T06:42:40.533Z,10.60
2023-05-03T06:45:14.456Z,11.17
2023-05-03T06:47:43.291Z,9.97
2023-05-03T06:50:11.194Z,10.90
2023-05-03T06:52:39.046Z,10.93
2023-05-03T06:55:07.233Z,10.47
2023-05-03T06:57:34.634Z,10.60
2023-05-03T07:00:02.260Z,10.47
2023-05-03T07:02:30.064Z,10.97
2023-05-03T07:04:57.421Z,10.70
2023-05-03T07:07:24.704Z,10.43
2023-05-03T07:09:52.030Z,12.00
2023-05-03T07:12:19.269Z,11.43
2023-05-03T07:14:47.346Z,11.00
2023-05-03T07:17:14.616Z,11.30
2023-05-03T07:19:41.923Z,11.03
2023-05-03T07:22:09.357Z,11.30
2023-05-03T07:24:37.156Z,10.70
2023-05-03T07:27:04.588Z,10.57
2023-05-03T07:29:31.982Z,10.60
2023-05-03T07:31:59.605Z,11.23
2023-05-03T07:34:27.159Z,9.97
2023-05-03T07:36:54.500Z,9.93
2023-05-03T07:39:21.775Z,10.73
2023-05-03T07:41:49.095Z,10.20
2023-05-03T07:44:16.355Z,10.00
2023-05-03T07:46:43.788Z,10.63
2023-05-03T07:49:11.212Z,9.93
2023-05-03T07:51:39.718Z,9.90
2023-05-03T07:54:07.222Z,10.57
2023-05-03T07:56:34.738Z,10.77
2023-05-03T07:59:09.322Z,9.77
2023-05-03T08:01:38.418Z,10.10
2023-05-03T08:04:06.064Z,10.70
2023-05-03T08:06:35.754Z,10.40
2023-05-03T08:09:04.733Z,10.90
2023-05-03T08:11:32.275Z,10.67
2023-05-03T08:13:59.584Z,10.10
2023-05-03T08:16:27.151Z,11.00
2023-05-03T08:18:54.604Z,10.50
2023-05-03T08:21:24.809Z,9.87
2023-05-03T08:23:52.535Z,11.37
2023-05-03T08:26:22.325Z,11.07
2023-05-03T08:28:50.042Z,11.57
2023-05-03T08:31:17.668Z,10.93
2023-05-03T08:33:45.782Z,11.70
2023-05-03T08:36:13.069Z,11.13
2023-05-03T08:38:42.985Z,10.83
2023-05-03T08:41:29.068Z,11.00
2023-05-03T08:43:59.406Z,12.07
2023-05-03T08:46:28.402Z,10.27
2023-05-03T08:48:56.240Z,11.07
2023-05-03T08:51:25.235Z,11.10
2023-05-03T08:53:52.719Z,11.03
2023-05-03T08:56:44.733Z,11.27
2023-05-03T08:59:12.137Z,11.83
2023-05-03T09:01:41.390Z,10.90
2023-05-03T09:04:11.153Z,10.87
2023-05-03T09:06:38.909Z,10.33
2023-05-03T09:09:08.030Z,10.60
2023-05-03T09:11:37.424Z,10.33
2023-05-03T09:14:15.729Z,9.50
2023-05-03T09:16:45.259Z,10.07
2023-05-03T09:19:14.453Z,9.43
2023-05-03T09:21:49.359Z,9.17
2023-05-03T09:24:21.753Z,9.40
2023-05-03T09:26:51.890Z,9.50
2023-05-03T09:29:36.317Z,8.73
2023-05-03T09:32:25.465Z,8.60
2023-05-03T09:35:17.660Z,8.87
2023-05-03T09:37:44.933Z,9.60
2023-05-03T09:40:18.044Z,10.63
2023-05-03T09:43:18.108Z,7.80
2023-05-03T09:45:46.866Z,7.93
2023-05-03T09:48:14.753Z,8.03
2023-05-03T09:50:43.319Z,8.13
2023-05-03T09:53:10.784Z,7.70
2023-05-03T09:55:40.827Z,7.40
2023-05-03T09:58:08.578Z,7.87
2023-05-03T10:00:38.416Z,7.70
2023-05-03T10:03:08.821Z,7.20
2023-05-03T10:05:46.332Z,7.80
2023-05-03T10:08:35.036Z,7.70
2023-05-03T10:11:04.458Z,7.10
2023-05-03T10:13:32.302Z,7.00
2023-05-03T10:16:10.584Z,7.47
2023-05-03T10:18:44.557Z,8.67
2023-05-03T10:21:18.845Z,6.90
2023-05-03T10:24:16.191Z,7.53
2023-05-03T10:26:49.712Z,7.17
2023-05-03T10:29:51.258Z,7.13
2023-05-03T10:32:31.023Z,7.20
2023-05-03T10:35:10.266Z,6.60
2023-05-03T10:37:40.319Z,6.10
2023-05-03T10:40:15.205Z,7.20
2023-05-03T10:42:50.777Z,7.67
2023-05-03T10:45:44.465Z,7.27
2023-05-03T10:48:11.909Z,7.87
2023-05-03T10:50:40.122Z,7.07
2023-05-03T10:53:07.989Z,6.93
2023-05-03T10:55:36.096Z,8.87
2023-05-03T10:58:03.967Z,8.03
2023-05-03T11:00:41.561Z,7.93
2023-05-03T11:03:34.497Z,8.67
2023-05-03T11:06:03.194Z,8.50
2023-05-03T11:08:37.247Z,7.77
2023-05-03T11:11:09.936Z,7.70
2023-05-03T11:13:37.608Z,8.63
2023-05-03T11:16:06.240Z,7.23
2023-05-03T11:18:33.834Z,8.03
2023-05-03T11:21:01.586Z,7.87
2023-05-03T11:23:29.739Z,8.13
2023-05-03T11:26:00.172Z,9.13
2023-05-03T11:28:27.626Z,8.37
2023-05-03T11:30:55.123Z,7.90
2023-05-03T11:33:22.473Z,8.97
2023-05-03T11:35:54.829Z,7.47
2023-05-03T11:38:22.235Z,7.20
2023-05-03T11:40:49.525Z,10.80
2023-05-03T11:43:17.029Z,6.97
2023-05-03T11:45:47.003Z,7.57
2023-05-03T11:48:14.897Z,6.73
2023-05-03T11:50:56.187Z,6.97
2023-05-03T11:53:25.096Z,7.80
2023-05-03T11:55:54.330Z,6.80
2023-05-03T11:58:26.766Z,7.40
2023-05-03T12:00:56.264Z,6.80
2023-05-03T12:03:30.203Z,6.40
2023-05-03T12:06:00.498Z,9.67
2023-05-03T12:08:36.092Z,6.73
2023-05-03T12:11:07.344Z,6.57
2023-05-03T12:13:39.738Z,7.00
2023-05-03T12:16:13.498Z,7.17
2023-05-03T12:18:57.934Z,7.40
2023-05-03T12:23:57.573Z,7.13
2023-05-03T12:26:27.636Z,6.47
2023-05-03T12:28:56.663Z,6.17
2023-05-03T12:31:24.561Z,6.30
2023-05-03T12:36:25.923Z,7.43
2023-05-03T12:38:56.528Z,6.47
2023-05-03T12:42:04.699Z,6.83
2023-05-03T12:44:17.117Z,6.57
2023-05-03T12:46:45.737Z,7.00
2023-05-03T12:49:14.876Z,7.30
2023-05-03T12:51:43.347Z,5.90
2023-05-03T12:54:12.231Z,6.00
2023-05-03T12:56:41.076Z,6.07
2023-05-03T13:02:40.667Z,6.90
2023-05-03T13:06:59.884Z,7.30
2023-05-03T13:09:37.934Z,9.57
2023-05-03T13:12:15.678Z,6.23
2023-05-03T13:14:43.570Z,7.37
2023-05-03T13:17:11.915Z,5.37
2023-05-03T13:19:40.785Z,6.27
2023-05-03T13:22:08.213Z,5.43
2023-05-03T13:24:36.147Z,4.90
2023-05-03T13:27:04.794Z,5.23
2023-05-03T13:29:32.310Z,5.57
2023-05-03T13:31:59.624Z,8.40
2023-05-03T13:34:27.061Z,5.00
2023-05-03T13:36:54.382Z,5.20
2023-05-03T13:39:21.766Z,5.83
2023-05-03T13:41:49.469Z,4.90
2023-05-03T13:44:17.557Z,5.80
2023-05-03T13:46:45.015Z,6.37
2023-05-03T13:49:12.516Z,5.43
2023-05-03T13:51:40.341Z,6.40
2023-05-03T13:54:08.161Z,5.03
2023-05-03T13:56:35.955Z,5.80
2023-05-03T13:59:04.330Z,8.27
2023-05-03T14:01:31.998Z,6.40
2023-05-03T14:03:59.760Z,5.13
2023-05-03T14:06:27.940Z,6.60
2023-05-03T14:08:57.776Z,5.50
2023-05-03T14:11:25.140Z,6.93
2023-05-03T14:13:56.843Z,5.43
2023-05-03T14:16:40.078Z,7.70
2023-05-03T14:19:10.443Z,6.17
2023-05-03T14:21:38.760Z,8.27
2023-05-03T14:24:06.775Z,5.20
2023-05-03T14:26:34.360Z,6.73
2023-05-03T14:29:01.836Z,7.03
2023-05-03T14:31:29.222Z,4.67
2023-05-03T14:33:56.969Z,8.00
2023-05-03T14:36:24.293Z,6.50
2023-05-03T14:38:51.545Z,4.70
2023-05-03T14:41:18.763Z,7.27
2023-05-03T14:43:46.146Z,5.03
2023-05-03T14:46:13.381Z,5.50
2023-05-03T14:48:41.030Z,6.63
2023-05-03T14:51:08.576Z,5.97
2023-05-03T14:53:36.037Z,6.90
2023-05-03T14:56:03.436Z,7.77
2023-05-03T14:58:31.217Z,8.20
2023-05-03T15:00:58.494Z,4.80
2023-05-03T15:03:26.401Z,6.37
2023-05-03T15:05:53.940Z,7.87
2023-05-03T15:08:21.858Z,5.83
2023-05-03T15:10:49.126Z,6.03
2023-05-03T15:13:17.161Z,6.63
2023-05-03T15:15:45.789Z,6.33
2023-05-03T15:18:14.655Z,5.80
2023-05-03T15:20:42.023Z,6.40
2023-05-03T15:23:09.369Z,5.07
2023-05-03T15:25:37.192Z,5.63
2023-05-03T15:28:04.938Z,8.90
2023-05-03T15:30:32.802Z,7.37
2023-05-03T15:33:02.133Z,6.33
2023-05-03T15:35:29.571Z,8.23
2023-05-03T15:37:56.875Z,6.77
2023-05-03T15:40:26.774Z,8.40
2023-05-03T15:42:54.450Z,6.77
2023-05-03T15:45:23.373Z,8.07
2023-05-03T15:47:50.929Z,5.77
2023-05-03T15:50:18.823Z,6.57
2023-05-03T15:52:46.735Z,6.67
2023-05-03T15:55:14.095Z,5.97
2023-05-03T15:57:41.351Z,12.13
2023-05-03T16:00:09.380Z,6.30
2023-05-03T16:02:37.390Z,5.57
2023-05-03T16:05:04.950Z,5.93
2023-05-03T16:07:32.723Z,8.53
2023-05-03T16:10:00.286Z,5.80
2023-05-03T16:12:27.876Z,6.10
2023-05-03T16:14:55.652Z,5.83
2023-05-03T16:17:23.270Z,6.20
2023-05-03T16:19:50.703Z,7.97
2023-05-03T16:22:18.042Z,5.63
2023-05-03T16:24:46.849Z,7.80
2023-05-03T16:27:14.609Z,7.63
2023-05-03T16:29:41.879Z,11.10
2023-05-03T16:32:10.902Z,5.93
2023-05-03T16:34:38.578Z,5.47
2023-05-03T16:37:06.024Z,5.87
2023-05-03T16:39:33.333Z,5.17
2023-05-03T16:42:00.995Z,6.30
2023-05-03T16:44:28.412Z,5.50
2023-05-03T16:46:55.640Z,6.07
2023-05-03T16:49:23.173Z,7.30
2023-05-03T16:51:50.448Z,5.87
2023-05-03T16:54:17.897Z,6.07
2023-05-03T16:56:45.172Z,5.13
2023-05-03T16:59:12.479Z,7.20
2023-05-03T17:01:39.796Z,6.63
2023-05-03T17:04:07.890Z,6.37
2023-05-03T17:06:35.320Z,6.60
2023-05-03T17:09:04.272Z,5.63
2023-05-03T17:11:31.618Z,5.23
2023-05-03T17:14:00.935Z,6.07
2023-05-03T17:16:28.805Z,5.33
2023-05-03T17:18:56.465Z,5.73
2023-05-03T17:21:25.073Z,7.40
2023-05-03T17:23:52.403Z,8.77
2023-05-03T17:26:21.518Z,5.77
2023-05-03T17:28:48.958Z,5.47
2023-05-03T17:31:16.254Z,6.43
2023-05-03T17:33:43.653Z,6.17
2023-05-03T17:36:11.030Z,5.60
2023-05-03T17:38:38.562Z,5.67
2023-05-03T17:41:11.410Z,5.70
2023-05-03T17:43:39.174Z,5.13
2023-05-03T17:46:08.923Z,4.93
2023-05-03T17:48:40.733Z,5.33
2023-05-03T17:51:27.937Z,8.07
2023-05-03T17:53:55.681Z,4.90
2023-05-03T17:56:24.760Z,5.30
2023-05-03T17:58:51.997Z,6.67
2023-05-03T18:01:19.613Z,5.33
2023-05-03T18:03:47.222Z,5.43
2023-05-03T18:06:14.949Z,8.40
2023-05-03T18:08:42.740Z,9.23
2023-05-03T18:11:09.955Z,5.63
2023-05-03T18:13:37.781Z,7.37
2023-05-03T18:16:08.952Z,5.47
2023-05-03T18:18:36.382Z,5.50
2023-05-03T18:21:04.919Z,6.13
2023-05-03T18:23:32.857Z,5.77
2023-05-03T18:26:00.305Z,5.40
2023-05-03T18:28:27.848Z,6.07
2023-05-03T18:30:58.122Z,6.23
2023-05-03T18:33:25.431Z,5.70
2023-05-03T18:35:53.702Z,6.17
2023-05-03T18:38:21.829Z,6.03
2023-05-03T18:40:50.211Z,7.00
2023-05-03T18:43:17.846Z,6.83
2023-05-03T18:45:45.596Z,7.47
2023-05-03T18:48:12.988Z,7.40
2023-05-03T18:50:43.156Z,7.10
2023-05-03T18:53:11.044Z,7.57
2023-05-03T18:55:38.609Z,7.40
2023-05-03T18:58:06.282Z,7.37
2023-05-03T19:00:33.737Z,7.17
2023-05-03T19:03:29.453Z,7.93
2023-05-03T19:06:04.033Z,7.63
2023-05-03T19:08:31.726Z,10.10
2023-05-03T19:11:10.741Z,8.30
2023-05-03T19:13:39.056Z,8.50
2023-05-03T19:16:06.750Z,8.13
2023-05-03T19:18:37.443Z,8.40
2023-05-03T19:21:04.961Z,8.50
2023-05-03T19:23:32.529Z,8.47
2023-05-03T19:26:00.102Z,9.07
2023-05-03T19:28:27.974Z,9.07
2023-05-03T19:30:55.583Z,9.70
2023-05-03T19:33:23.308Z,9.67
2023-05-03T19:35:51.512Z,10.00
2023-05-03T19:38:18.755Z,9.67
2023-05-03T19:40:59.262Z,9.70
2023-05-03T19:43:26.788Z,9.37
2023-05-03T19:45:54.079Z,9.87
2023-05-03T19:48:21.725Z,9.87
2023-05-03T19:50:49.045Z,9.70
2023-05-03T19:53:16.408Z,9.53
2023-05-03T19:56:00.916Z,11.07
2023-05-03T19:58:28.939Z,11.03
2023-05-03T20:00:58.368Z,10.77
2023-05-03T20:03:25.685Z,11.10
2023-05-03T20:05:53.813Z,10.90
2023-05-03T20:08:21.215Z,11.30
2023-05-03T20:10:49.940Z,11.70
2023-05-03T20:13:17.448Z,11.47
2023-05-03T20:15:44.954Z,11.07
2023-05-03T20:18:12.284Z,10.90
2023-05-03T20:20:39.565Z,11.50
2023-05-03T20:23:06.996Z,11.40
2023-05-03T20:25:34.453Z,10.97
2023-05-03T20:28:01.844Z,11.57
2023-05-03T20:30:31.755Z,10.60
2023-05-03T20:32:59.364Z,10.33
2023-05-03T20:35:27.128Z,12.03
2023-05-03T20:37:54.377Z,11.40
2023-05-03T20:40:21.733Z,11.77
2023-05-03T20:42:49.045Z,10.83
2023-05-03T20:45:16.421Z,11.37
2023-05-03T20:47:43.933Z,11.30
2023-05-03T20:50:11.839Z,12.03
2023-05-03T20:52:39.244Z,12.87
2023-05-03T20:55:07.635Z,12.87
2023-05-03T20:57:39.356Z,12.73
2023-05-03T21:00:12.392Z,12.53
2023-05-03T21:02:40.022Z,11.67
2023-05-03T21:05:07.795Z,12.67
2023-05-03T21:07:35.375Z,12.63
2023-05-03T21:10:03.206Z,13.30
2023-05-03T21:12:30.788Z,13.80
2023-05-03T21:14:58.170Z,15.03
2023-05-03T21:17:25.613Z,12.60
2023-05-03T21:19:53.104Z,13.50
2023-05-03T21:22:21.239Z,13.53
2023-05-03T21:24:48.659Z,14.63
2023-05-03T21:27:15.978Z,12.70
2023-05-03T21:29:43.231Z,15.07
2023-05-03T21:32:10.569Z,14.13
2023-05-03T21:34:38.349Z,14.43
2023-05-03T21:37:05.619Z,14.90
2023-05-03T21:39:33.407Z,14.77
2023-05-03T21:42:00.780Z,15.53
2023-05-03T21:44:28.449Z,14.43
2023-05-03T21:46:56.393Z,15.40
2023-05-03T21:49:24.040Z,15.23
2023-05-03T21:51:51.751Z,14.60
2023-05-03T21:54:19.340Z,16.77
2023-05-03T21:56:46.660Z,15.23
2023-05-03T21:59:14.095Z,15.77
2023-05-03T22:01:41.704Z,15.67
2023-05-03T22:04:09.272Z,15.03
2023-05-03T22:06:37.856Z,14.47
2023-05-03T22:09:06.950Z,14.57
2023-05-03T22:11:34.673Z,15.20
2023-05-03T22:14:08.043Z,15.03
2023-05-03T22:16:37.839Z,15.40
2023-05-03T22:19:05.469Z,15.17
2023-05-03T22:21:33.020Z,16.03
2023-05-03T22:24:00.997Z,16.07
2023-05-03T22:26:28.466Z,15.90
2023-05-03T22:28:55.938Z,16.00
2023-05-03T22:31:23.485Z,16.83
2023-05-03T22:33:50.848Z,17.53
2023-05-03T22:36:18.254Z,15.63
2023-05-03T22:38:46.159Z,17.00
2023-05-03T22:41:13.709Z,14.60
2023-05-03T22:43:41.015Z,15.70
2023-05-03T22:46:08.501Z,15.70
2023-05-03T22:48:35.817Z,15.70
2023-05-03T22:51:03.724Z,15.33
2023-05-03T22:53:31.153Z,16.27
2023-05-03T22:56:01.480Z,16.03
2023-05-03T22:58:29.273Z,15.23
2023-05-03T23:00:57.474Z,16.63
2023-05-03T23:03:25.280Z,15.67
2023-05-03T23:05:53.793Z,15.53
2023-05-03T23:08:21.381Z,15.83
2023-05-03T23:10:48.649Z,16.17
2023-05-03T23:13:16.602Z,14.57
2023-05-03T23:15:44.170Z,15.33
2023-05-03T23:18:11.471Z,15.37
2023-05-03T23:20:38.740Z,13.87
2023-05-03T23:23:06.053Z,14.47
2023-05-03T23:25:33.968Z,16.83
2023-05-03T23:28:01.472Z,14.50
2023-05-03T23:30:29.196Z,15.30
2023-05-03T23:32:57.188Z,14.70
2023-05-03T23:35:25.311Z,16.30
2023-05-03T23:37:52.567Z,15.07
2023-05-03T23:40:19.961Z,14.37
2023-05-03T23:42:48.333Z,15.70
2023-05-03T23:45:16.041Z,14.50
2023-05-03T23:47:43.491Z,14.23
2023-05-03T23:50:11.066Z,14.53
2023-05-03T23:52:38.764Z,14.17
2023-05-03T23:55:06.479Z,13.90
2023-05-03T23:57:33.927Z,13.57
